sensor_id;sensor_type;location;lat;lon;timestamp;pressure;altitude;pressure_sealevel;temperature;humidity
46382;BME280;66809;52.974;-2.514;2023-07-20T00:01:41;1010.6827706958727;;;11.765721476437177;37.79192906537841
46382;BME280;66809;52.974;-2.514;2023-07-20T00:03:41;1010.6800408956767;;;11.746385364920288;37.79644945934556
46382;BME280;66809;52.974;-2.514;2023-07-20T00:05:41;1010.6779681658919;;;11.719744048912334;37.798029446455125
46382;BME280;66809;52.974;-2.514;2023-07-20T00:07:42;1010.6761737866859;;;11.692887235432643;37.817514815221266
46382;BME280;66809;52.974;-2.514;2023-07-20T00:09:41;1010.6749294870082;;;11.661416837307396;37.835402558905805
46382;BME280;66809;52.974;-2.514;2023-07-20T00:11:48;1010.6748686501115;;;11.640344067187698;37.853286100381396
46382;BME280;66809;52.974;-2.514;2023-07-20T00:13:41;1010.6748633833106;;;11.61668553746122;37.860139668193014
46382;BME280;66809;52.974;-2.514;2023-07-20T00:15:42;1010.6749673454868;;;11.59664834378488;37.86934155873969
46382;BME280;66809;52.974;-2.514;2023-07-20T00:17:41;1010.6750862922561;;;11.586355557044637;37.8738054061508
46382;BME280;66809;52.974;-2.514;2023-07-20T00:19:41;1010.675033562307;;;11.565858383089013;37.868628784489715
46382;BME280;66809;52.974;-2.514;2023-07-20T00:21:41;1010.6752781844648;;;11.537221621604262;37.86681128547987
46382;BME280;66809;52.974;-2.514;2023-07-20T00:23:41;1010.6766773337392;;;11.515117481052107;37.8737596842075
46382;BME280;66809;52.974;-2.514;2023-07-20T00:25:41;1010.6772652316305;;;11.489711268844024;37.879452313370315
46382;BME280;66809;52.974;-2.514;2023-07-20T00:27:41;1010.680071591499;;;11.46096098014934;37.89973070524459
46382;BME280;66809;52.974;-2.514;2023-07-20T00:29:41;1010.6827259875844;;;11.43591392818722;37.92278049910146
46382;BME280;66809;52.974;-2.514;2023-07-20T00:31:41;1010.684351423831;;;11.400099561090776;37.95253185931587
46382;BME280;66809;52.974;-2.514;2023-07-20T00:33:41;1010.6845159778019;;;11.371374516515148;37.98905430843415
46382;BME280;66809;52.974;-2.514;2023-07-20T00:35:41;1010.6840061477068;;;11.3412652839256;38.00734582665544
46382;BME280;66809;52.974;-2.514;2023-07-20T00:37:41;1010.6832766936847;;;11.311763155171898;38.01389166528554
46382;BME280;66809;52.974;-2.514;2023-07-20T00:39:41;1010.681640544521;;;11.299210235031325;38.02091212363381
46382;BME280;66809;52.974;-2.514;2023-07-20T00:41:42;1010.680716296798;;;11.271640630654142;38.02350740726454
46382;BME280;66809;52.974;-2.514;2023-07-20T00:43:41;1010.6789415204278;;;11.259709499766021;38.03022344263982
46382;BME280;66809;52.974;-2.514;2023-07-20T00:45:42;1010.6768247816218;;;11.243041678964264;38.0270039477846
46382;BME280;66809;52.974;-2.514;2023-07-20T00:47:41;1010.6740871218268;;;11.218614496026312;38.03027704239475
46382;BME280;66809;52.974;-2.514;2023-07-20T00:49:41;1010.6703412948846;;;11.209935005784951;38.037379377094
46382;BME280;66809;52.974;-2.514;2023-07-20T00:51:41;1010.6656769046562;;;11.203448469017484;38.05194472329044
46382;BME280;66809;52.974;-2.514;2023-07-20T00:53:41;1010.6606349848622;;;11.19435938028031;38.07171955401195
46382;BME280;66809;52.974;-2.514;2023-07-20T00:55:41;1010.6559624361091;;;11.193950531610572;38.079186072630236
46382;BME280;66809;52.974;-2.514;2023-07-20T00:57:41;1010.6511034043979;;;11.184418231382288;38.095010454726825
46382;BME280;66809;52.974;-2.514;2023-07-20T00:59:41;1010.6456934555338;;;11.188871290388535;38.11897917808608
46382;BME280;66809;52.974;-2.514;2023-07-20T01:01:41;1010.6392399460086;;;11.192311934434967;38.14615273558521
46382;BME280;66809;52.974;-2.514;2023-07-20T01:03:42;1010.6319118568117;;;11.197033946478445;38.147212752304654
46382;BME280;66809;52.974;-2.514;2023-07-20T01:05:48;1010.6254825875508;;;11.2119204480763;38.14814744252472
46382;BME280;66809;52.974;-2.514;2023-07-20T01:07:48;1010.6183799130436;;;11.217150819509364;38.138248421533454
46382;BME280;66809;52.974;-2.514;2023-07-20T01:09:46;1010.610017862481;;;11.235509526165908;38.11899441510214
46382;BME280;66809;52.974;-2.514;2023-07-20T01:11:51;1010.6002297292392;;;11.24537789585769;38.10052204363855
46382;BME280;66809;52.974;-2.514;2023-07-20T01:13:43;1010.5914569992941;;;11.259688901390184;38.088440483212395
46382;BME280;66809;52.974;-2.514;2023-07-20T01:15:41;1010.5822461378442;;;11.270204262548685;38.06907040144659
46382;BME280;66809;52.974;-2.514;2023-07-20T01:17:42;1010.5722910495156;;;11.281307781162159;38.05628274210156
46382;BME280;66809;52.974;-2.514;2023-07-20T01:19:41;1010.5614474679652;;;11.292932234877954;38.0437841603158
46382;BME280;66809;52.974;-2.514;2023-07-20T01:21:47;1010.5495798303567;;;11.314097299434668;38.02813934572251
46382;BME280;66809;52.974;-2.514;2023-07-20T01:24:02;1010.5368580544277;;;11.32784536902118;38.003461564374895
46382;BME280;66809;52.974;-2.514;2023-07-20T01:25:56;1010.5234563601351;;;11.338719892760487;37.984009432410275
46382;BME280;66809;52.974;-2.514;2023-07-20T01:28:15;1010.5088522136609;;;11.354112654904794;37.96446475921828
46382;BME280;66809;52.974;-2.514;2023-07-20T01:30:03;1010.4946026165903;;;11.360082429234062;37.954853834371654
46382;BME280;66809;52.974;-2.514;2023-07-20T01:31:43;1010.4812737644354;;;11.381816691830943;37.94346688768725
46382;BME280;66809;52.974;-2.514;2023-07-20T01:33:42;1010.467629338979;;;11.398032853174072;37.92687452604386
46382;BME280;66809;52.974;-2.514;2023-07-20T01:35:42;1010.4545292566901;;;11.405859486467076;37.91627432922542
46382;BME280;66809;52.974;-2.514;2023-07-20T01:37:42;1010.4406103805687;;;11.427224040495451;37.90902353710443
46382;BME280;66809;52.974;-2.514;2023-07-20T01:39:41;1010.4263309922903;;;11.443532614681128;37.900596411184296
46382;BME280;66809;52.974;-2.514;2023-07-20T01:41:41;1010.4091255440396;;;11.4629751849201;37.89431964622166
46382;BME280;66809;52.974;-2.514;2023-07-20T01:43:42;1010.3929695653753;;;11.473986222564466;37.885681899131036
46382;BME280;66809;52.974;-2.514;2023-07-20T01:45:41;1010.3776501587537;;;11.495386487044412;37.87989152568618
46382;BME280;66809;52.974;-2.514;2023-07-20T01:47:41;1010.3637683421075;;;11.51503070650805;37.87695609271516
46382;BME280;66809;52.974;-2.514;2023-07-20T01:49:41;1010.350514647304;;;11.524109248778359;37.87589453534294
46382;BME280;66809;52.974;-2.514;2023-07-20T01:51:41;1010.3371056431686;;;11.539065071875688;37.872688100163494
46382;BME280;66809;52.974;-2.514;2023-07-20T01:53:41;1010.324846589538;;;11.554212029523212;37.8805108704921
46382;BME280;66809;52.974;-2.514;2023-07-20T01:55:41;1010.31225746646;;;11.55437084521925;37.890415851211095
46382;BME280;66809;52.974;-2.514;2023-07-20T01:57:41;1010.2996079974705;;;11.552053966125584;37.89650116770177
46382;BME280;66809;52.974;-2.514;2023-07-20T01:59:41;1010.2880664889177;;;11.5405325605344;37.89776794000795
46382;BME280;66809;52.974;-2.514;2023-07-20T02:01:41;1010.2764281730203;;;11.54436182594083;37.89944300169905
46382;BME280;66809;52.974;-2.514;2023-07-20T02:03:41;1010.2670071815344;;;11.550676011097032;37.911748383224946
46382;BME280;66809;52.974;-2.514;2023-07-20T02:05:42;1010.2563222877199;;;11.536142399943078;37.9375508902028
46382;BME280;66809;52.974;-2.514;2023-07-20T02:07:42;1010.2452532025185;;;11.542418743521305;37.967787481101354
46382;BME280;66809;52.974;-2.514;2023-07-20T02:09:41;1010.2336002280962;;;11.532560894422552;38.00039372403327
46382;BME280;66809;52.974;-2.514;2023-07-20T02:11:41;1010.2216532178415;;;11.520678120527865;38.03408996489214
46382;BME280;66809;52.974;-2.514;2023-07-20T02:13:41;1010.2092988286817;;;11.497070163397867;38.06632059040717
46382;BME280;66809;52.974;-2.514;2023-07-20T02:15:41;1010.1977201780991;;;11.491535163001313;38.10957699903875
46382;BME280;66809;52.974;-2.514;2023-07-20T02:17:41;1010.1858310291353;;;11.473453687609192;38.149882880847684
46382;BME280;66809;52.974;-2.514;2023-07-20T02:19:41;1010.1750776208108;;;11.464685966396273;38.19196333735396
46382;BME280;66809;52.974;-2.514;2023-07-20T02:21:41;1010.1644994160292;;;11.444277095612224;38.23945666476235
46382;BME280;66809;52.974;-2.514;2023-07-20T02:23:41;1010.153744870637;;;11.439728089782696;38.293333199962184
46382;BME280;66809;52.974;-2.514;2023-07-20T02:25:41;1010.1436815546987;;;11.42128534375548;38.35732121261995
46382;BME280;66809;52.974;-2.514;2023-07-20T02:27:42;1010.1326671000259;;;11.409276534130907;38.41372950065245
46382;BME280;66809;52.974;-2.514;2023-07-20T02:29:42;1010.1218894068713;;;11.409575587391343;38.47562640247256
46382;BME280;66809;52.974;-2.514;2023-07-20T02:31:41;1010.1110267681127;;;11.401577547587008;38.53064050105765
46382;BME280;66809;52.974;-2.514;2023-07-20T02:33:41;1010.1015503473105;;;11.390175815963241;38.58790659342874
46382;BME280;66809;52.974;-2.514;2023-07-20T02:35:42;1010.091917906238;;;11.389785078892462;38.64683462228311
46382;BME280;66809;52.974;-2.514;2023-07-20T02:37:41;1010.0836803746789;;;11.383054949398652;38.70250529494979
46382;BME280;66809;52.974;-2.514;2023-07-20T02:39:41;1010.0755305445922;;;11.36334143975258;38.756401959344615
46382;BME280;66809;52.974;-2.514;2023-07-20T02:41:42;1010.0699857883084;;;11.364145926372565;38.80243160585009
46382;BME280;66809;52.974;-2.514;2023-07-20T02:43:41;1010.0641464588697;;;11.362933895544542;38.853182571775776
46382;BME280;66809;52.974;-2.514;2023-07-20T02:45:41;1010.0594602832257;;;11.359967932495058;38.90903638950738
46382;BME280;66809;52.974;-2.514;2023-07-20T02:47:41;1010.0523132023765;;;11.359119314099136;38.95780938759927
46382;BME280;66809;52.974;-2.514;2023-07-20T02:49:41;1010.0448894048229;;;11.3548111261319;38.99763055461713
46382;BME280;66809;52.974;-2.514;2023-07-20T02:51:41;1010.0375484532439;;;11.358659317499951;39.036752414632296
46382;BME280;66809;52.974;-2.514;2023-07-20T02:53:41;1010.0291786942399;;;11.357125964533255;39.0705494296589
46382;BME280;66809;52.974;-2.514;2023-07-20T02:55:41;1010.0212802114949;;;11.356374011016754;39.108078807959366
46382;BME280;66809;52.974;-2.514;2023-07-20T02:57:41;1010.0129256327465;;;11.370697574724757;39.14796481564387
46382;BME280;66809;52.974;-2.514;2023-07-20T02:59:41;1010.0035342398063;;;11.38266853536938;39.19189170735043
46382;BME280;66809;52.974;-2.514;2023-07-20T03:01:41;1009.9940537509316;;;11.381202399152828;39.240730355136456
46382;BME280;66809;52.974;-2.514;2023-07-20T03:03:42;1009.9829024200196;;;11.375528901876065;39.28661890060531
46382;BME280;66809;52.974;-2.514;2023-07-20T03:05:41;1009.9726606910288;;;11.387487298204691;39.32048765849776
46382;BME280;66809;52.974;-2.514;2023-07-20T03:07:41;1009.9633918162403;;;11.389400944522416;39.35209589058674
46382;BME280;66809;52.974;-2.514;2023-07-20T03:09:41;1009.9541380821665;;;11.404499622097193;39.38370750852617
46382;BME280;66809;52.974;-2.514;2023-07-20T03:11:41;1009.9453230096693;;;11.413458440106131;39.4149300426113
46382;BME280;66809;52.974;-2.514;2023-07-20T03:13:41;1009.9366577762406;;;11.436879420474288;39.4423194440295
46382;BME280;66809;52.974;-2.514;2023-07-20T03:15:42;1009.9261784734288;;;11.443569660736872;39.47109364556957
46382;BME280;66809;52.974;-2.514;2023-07-20T03:17:41;1009.9159563732522;;;11.459857211380724;39.504402708563084
46382;BME280;66809;52.974;-2.514;2023-07-20T03:19:41;1009.9052107630083;;;11.451929811936667;39.551579860151115
46382;BME280;66809;52.974;-2.514;2023-07-20T03:21:41;1009.8945488304768;;;11.457004714354337;39.597959893434016
46382;BME280;66809;52.974;-2.514;2023-07-20T03:23:41;1009.8847437487689;;;11.449933514611905;39.63479879469703
46382;BME280;66809;52.974;-2.514;2023-07-20T03:25:41;1009.8753636126003;;;11.469296247076743;39.66190446597331
46382;BME280;66809;52.974;-2.514;2023-07-20T03:27:42;1009.8677863436026;;;11.467989744224134;39.687833079254325
46382;BME280;66809;52.974;-2.514;2023-07-20T03:29:41;1009.8595362708085;;;11.461330249584408;39.71179799033803
46382;BME280;66809;52.974;-2.514;2023-07-20T03:31:41;1009.8510416573747;;;11.454872407243483;39.727603061503146
46382;BME280;66809;52.974;-2.514;2023-07-20T03:33:41;1009.8428998409419;;;11.45613484804476;39.74007224122622
46382;BME280;66809;52.974;-2.514;2023-07-20T03:35:42;1009.8366178312789;;;11.460943001212001;39.76049735920637
46382;BME280;66809;52.974;-2.514;2023-07-20T03:37:41;1009.8288937007818;;;11.462434427353978;39.76499580338513
46382;BME280;66809;52.974;-2.514;2023-07-20T03:39:42;1009.820538687342;;;11.473651317931246;39.77460719586593
46382;BME280;66809;52.974;-2.514;2023-07-20T03:41:41;1009.8120682623438;;;11.480501209951004;39.792573907503275
46382;BME280;66809;52.974;-2.514;2023-07-20T03:43:41;1009.8050827403355;;;11.483547040258454;39.801789084389696
46382;BME280;66809;52.974;-2.514;2023-07-20T03:45:41;1009.7964511805532;;;11.495032805732734;39.80914136639254
46382;BME280;66809;52.974;-2.514;2023-07-20T03:47:41;1009.7899745293001;;;11.501454192703637;39.81678625423288
46382;BME280;66809;52.974;-2.514;2023-07-20T03:49:41;1009.7846352949175;;;11.519348697291914;39.82639145409432
46382;BME280;66809;52.974;-2.514;2023-07-20T03:51:41;1009.7813402604713;;;11.526377187800554;39.83648291358152
46382;BME280;66809;52.974;-2.514;2023-07-20T03:53:41;1009.7787404363609;;;11.543248774603876;39.838310936236866
46382;BME280;66809;52.974;-2.514;2023-07-20T03:55:41;1009.7755216474837;;;11.554929942514873;39.84466772633346
46382;BME280;66809;52.974;-2.514;2023-07-20T03:57:42;1009.7730560020656;;;11.566854775127082;39.847580499810356
46382;BME280;66809;52.974;-2.514;2023-07-20T03:59:45;1009.769875317963;;;11.580418037353478;39.84409499586868
46382;BME280;66809;52.974;-2.514;2023-07-20T04:01:42;1009.7670464099414;;;11.596919926022236;39.83658517791995
46382;BME280;66809;52.974;-2.514;2023-07-20T04:03:41;1009.7654419043793;;;11.614675891820847;39.82581086441749
46382;BME280;66809;52.974;-2.514;2023-07-20T04:05:41;1009.7630674083081;;;11.631366944987992;39.808519521592345
46382;BME280;66809;52.974;-2.514;2023-07-20T04:07:41;1009.7617757847618;;;11.651088257940758;39.78551261827638
46382;BME280;66809;52.974;-2.514;2023-07-20T04:09:41;1009.7617677331494;;;11.662445264478725;39.76033724286315
46382;BME280;66809;52.974;-2.514;2023-07-20T04:11:41;1009.7622123632353;;;11.68341225536855;39.728748658845184
46382;BME280;66809;52.974;-2.514;2023-07-20T04:13:41;1009.7625272770641;;;11.707759881770881;39.69793322356725
46382;BME280;66809;52.974;-2.514;2023-07-20T04:15:42;1009.7642407042923;;;11.725191700989662;39.663585481900185
46382;BME280;66809;52.974;-2.514;2023-07-20T04:17:41;1009.766091325411;;;11.74173503650427;39.6264693588367
46382;BME280;66809;52.974;-2.514;2023-07-20T04:19:41;1009.7675226818119;;;11.780759154427294;39.56227134181468
46382;BME280;66809;52.974;-2.514;2023-07-20T04:21:42;1009.7690593638071;;;11.809928855012942;39.502217444920696
46382;BME280;66809;52.974;-2.514;2023-07-20T04:23:41;1009.7695681185603;;;11.846692031760805;39.4491336505915
46382;BME280;66809;52.974;-2.514;2023-07-20T04:25:41;1009.7697116103695;;;11.872611496376301;39.39455459776122
46382;BME280;66809;52.974;-2.514;2023-07-20T04:27:41;1009.7679214507126;;;11.911247617125309;39.334924472370886
46382;BME280;66809;52.974;-2.514;2023-07-20T04:29:41;1009.7663828188871;;;11.955917321736134;39.26841720366209
46382;BME280;66809;52.974;-2.514;2023-07-20T04:31:41;1009.7647280424378;;;11.991018286337892;39.22255943390261
46382;BME280;66809;52.974;-2.514;2023-07-20T04:33:42;1009.7627139678655;;;12.024945097107086;39.167911679499184
46382;BME280;66809;52.974;-2.514;2023-07-20T04:35:46;1009.7610360333927;;;12.058258582041079;39.10520402560174
46382;BME280;66809;52.974;-2.514;2023-07-20T04:37:41;1009.7592347592603;;;12.100289306402342;39.05191241877169
46382;BME280;66809;52.974;-2.514;2023-07-20T04:39:42;1009.7571664397215;;;12.147938987444368;38.98807763493808
46382;BME280;66809;52.974;-2.514;2023-07-20T04:41:41;1009.7559484898865;;;12.18162847755342;38.918837824500905
46382;BME280;66809;52.974;-2.514;2023-07-20T04:43:42;1009.7533400822491;;;12.222480722986226;38.854932969867136
46382;BME280;66809;52.974;-2.514;2023-07-20T04:45:42;1009.7512416998969;;;12.254006092093801;38.794814526829285
46382;BME280;66809;52.974;-2.514;2023-07-20T04:47:41;1009.7488265445493;;;12.286366600296986;38.74996307984663
46382;BME280;66809;52.974;-2.514;2023-07-20T04:49:41;1009.7454968174784;;;12.310478286090365;38.71240659153442
46382;BME280;66809;52.974;-2.514;2023-07-20T04:51:41;1009.7400405467693;;;12.33207556652252;38.67704248806921
46382;BME280;66809;52.974;-2.514;2023-07-20T04:53:41;1009.733680449105;;;12.351042948980458;38.65182770864785
46382;BME280;66809;52.974;-2.514;2023-07-20T04:55:47;1009.7280852986547;;;12.384200314719267;38.61882757546568
46382;BME280;66809;52.974;-2.514;2023-07-20T04:57:41;1009.723043934399;;;12.407251193802125;38.58660606155415
46382;BME280;66809;52.974;-2.514;2023-07-20T04:59:41;1009.7185095629277;;;12.429848364719954;38.55752917173006
46382;BME280;66809;52.974;-2.514;2023-07-20T05:01:41;1009.7157907232763;;;12.455562760778287;38.526180997051945
46382;BME280;66809;52.974;-2.514;2023-07-20T05:03:41;1009.7140895795965;;;12.481802188280268;38.50105961079226
46382;BME280;66809;52.974;-2.514;2023-07-20T05:05:41;1009.7136785521359;;;12.505975444679617;38.495068326264274
46382;BME280;66809;52.974;-2.514;2023-07-20T05:07:41;1009.7128401919617;;;12.529930250926872;38.486708545386264
46382;BME280;66809;52.974;-2.514;2023-07-20T05:09:41;1009.7120203099475;;;12.549660900398997;38.48100683028006
46382;BME280;66809;52.974;-2.514;2023-07-20T05:11:41;1009.7101760063431;;;12.56208925393588;38.477967244153824
46382;BME280;66809;52.974;-2.514;2023-07-20T05:13:41;1009.7090647338563;;;12.57739741846806;38.47591839121535
46382;BME280;66809;52.974;-2.514;2023-07-20T05:15:41;1009.7086802948127;;;12.595335489819366;38.472874917723104
46382;BME280;66809;52.974;-2.514;2023-07-20T05:17:41;1009.7088202532774;;;12.614223031661675;38.46962768373563
46382;BME280;66809;52.974;-2.514;2023-07-20T05:19:41;1009.7103896827101;;;12.622163866439815;38.474947595697806
46382;BME280;66809;52.974;-2.514;2023-07-20T05:21:41;1009.7125730545511;;;12.636087867003964;38.46991741344328
46382;BME280;66809;52.974;-2.514;2023-07-20T05:23:41;1009.7154994475615;;;12.645508258324808;38.46737372567473
46382;BME280;66809;52.974;-2.514;2023-07-20T05:25:41;1009.7183004095656;;;12.657113990428899;38.47046515103689
46382;BME280;66809;52.974;-2.514;2023-07-20T05:27:42;1009.7223637688797;;;12.670593442123897;38.48173064209035
46382;BME280;66809;52.974;-2.514;2023-07-20T05:29:43;1009.7273918197286;;;12.686195760860036;38.488151265814714
46382;BME280;66809;52.974;-2.514;2023-07-20T05:31:41;1009.7316241022316;;;12.709394488910556;38.48351509969114
46382;BME280;66809;52.974;-2.514;2023-07-20T05:33:41;1009.735327185253;;;12.727906943289389;38.48488929096871
46382;BME280;66809;52.974;-2.514;2023-07-20T05:35:41;1009.7374345741163;;;12.749500850331438;38.487062280357335
46382;BME280;66809;52.974;-2.514;2023-07-20T05:37:41;1009.7407821654795;;;12.759478782836725;38.49467006297026
46382;BME280;66809;52.974;-2.514;2023-07-20T05:39:42;1009.7447854428846;;;12.76804513466487;38.50494701386951
46382;BME280;66809;52.974;-2.514;2023-07-20T05:41:41;1009.7470604297807;;;12.78622992301413;38.51954147732447
46382;BME280;66809;52.974;-2.514;2023-07-20T05:43:41;1009.7489435862315;;;12.809750170011103;38.5251288182666
46382;BME280;66809;52.974;-2.514;2023-07-20T05:45:42;1009.7505463270246;;;12.824322716028261;38.517460881816554
46382;BME280;66809;52.974;-2.514;2023-07-20T05:47:42;1009.7524342761859;;;12.852278650280395;38.50149512664961
46382;BME280;66809;52.974;-2.514;2023-07-20T05:49:41;1009.7554694205354;;;12.882872908766071;38.487300727166414
46382;BME280;66809;52.974;-2.514;2023-07-20T05:51:41;1009.7599046994727;;;12.915979454216096;38.47172149704788
46382;BME280;66809;52.974;-2.514;2023-07-20T05:53:41;1009.7657516210659;;;12.947021233852599;38.44586761874196
46382;BME280;66809;52.974;-2.514;2023-07-20T05:55:41;1009.7715415374354;;;12.973424255139884;38.42109052168486
46382;BME280;66809;52.974;-2.514;2023-07-20T05:57:42;1009.7771836052501;;;13.008532808788146;38.389965998372524
46382;BME280;66809;52.974;-2.514;2023-07-20T05:59:41;1009.7835825428804;;;13.043481731278595;38.35982470058862
46382;BME280;66809;52.974;-2.514;2023-07-20T06:01:41;1009.7889083779539;;;13.067584771142643;38.328992743015604
46382;BME280;66809;52.974;-2.514;2023-07-20T06:03:41;1009.7932693276126;;;13.10024207056347;38.302499886033225
46382;BME280;66809;52.974;-2.514;2023-07-20T06:05:41;1009.7969994587529;;;13.129588150946434;38.267810685561635
46382;BME280;66809;52.974;-2.514;2023-07-20T06:07:41;1009.7988132008205;;;13.168671031134222;38.23864626053526
46382;BME280;66809;52.974;-2.514;2023-07-20T06:09:41;1009.7991143545411;;;13.201081768029065;38.21008145788118
46382;BME280;66809;52.974;-2.514;2023-07-20T06:11:41;1009.8003181636981;;;13.244711042570058;38.18259730225232
46382;BME280;66809;52.974;-2.514;2023-07-20T06:13:41;1009.800375040555;;;13.268917185773185;38.152926505588105
46382;BME280;66809;52.974;-2.514;2023-07-20T06:15:41;1009.7999132795219;;;13.311027904110732;38.12413518005181
46382;BME280;66809;52.974;-2.514;2023-07-20T06:17:41;1009.7989149829702;;;13.350777594593099;38.09593827842699
46382;BME280;66809;52.974;-2.514;2023-07-20T06:19:41;1009.7961801486449;;;13.396079034277856;38.077805397215535
46382;BME280;66809;52.974;-2.514;2023-07-20T06:21:41;1009.7923003246108;;;13.44660452841709;38.0610469097099
46382;BME280;66809;52.974;-2.514;2023-07-20T06:23:41;1009.7895160371155;;;13.495283741708887;38.04418758318411
46382;BME280;66809;52.974;-2.514;2023-07-20T06:25:41;1009.7874898889252;;;13.541175625808497;38.022185963212635
46382;BME280;66809;52.974;-2.514;2023-07-20T06:27:42;1009.7866103789594;;;13.5904430674795;38.0034473743848
46382;BME280;66809;52.974;-2.514;2023-07-20T06:29:41;1009.7850117608265;;;13.622287841510394;37.98490641900543
46382;BME280;66809;52.974;-2.514;2023-07-20T06:31:41;1009.7844499572744;;;13.665161142156432;37.97497464656583
46382;BME280;66809;52.974;-2.514;2023-07-20T06:33:42;1009.7847501986643;;;13.699875080587912;37.96999196053673
46382;BME280;66809;52.974;-2.514;2023-07-20T06:35:41;1009.7850558408696;;;13.7380010534375;37.96621297112607
46382;BME280;66809;52.974;-2.514;2023-07-20T06:37:41;1009.7854854678927;;;13.76905155897523;37.966892542423274
46382;BME280;66809;52.974;-2.514;2023-07-20T06:39:41;1009.7868967312909;;;13.795370868248135;37.97567460064688
46382;BME280;66809;52.974;-2.514;2023-07-20T06:41:42;1009.7892704381138;;;13.822356900510187;37.98871214285362
46382;BME280;66809;52.974;-2.514;2023-07-20T06:43:41;1009.7913665598295;;;13.86159205128056;38.004006749780196
46382;BME280;66809;52.974;-2.514;2023-07-20T06:45:41;1009.7936235525693;;;13.91153577605893;38.01988121855249
46382;BME280;66809;52.974;-2.514;2023-07-20T06:47:41;1009.7953838410925;;;13.940235960117855;38.03655061824918
46382;BME280;66809;52.974;-2.514;2023-07-20T06:49:41;1009.7962178847998;;;13.970344860611286;38.04896422082568
46382;BME280;66809;52.974;-2.514;2023-07-20T06:51:41;1009.7957336300702;;;14.000094744080078;38.05314897748771
46382;BME280;66809;52.974;-2.514;2023-07-20T06:53:42;1009.7945601403086;;;14.037723854498058;38.06106623532684
46382;BME280;66809;52.974;-2.514;2023-07-20T06:55:42;1009.7939129945833;;;14.07549585383547;38.05591196251703
46382;BME280;66809;52.974;-2.514;2023-07-20T06:57:41;1009.7932850339535;;;14.112511679958361;38.052320862220036
46382;BME280;66809;52.974;-2.514;2023-07-20T06:59:41;1009.7930491358319;;;14.162986585118825;38.04821471929914
46382;BME280;66809;52.974;-2.514;2023-07-20T07:01:41;1009.7931883654741;;;14.215999045202143;38.0371555213937
46382;BME280;66809;52.974;-2.514;2023-07-20T07:05:36;1009.8611460005211;;;12.65991827128391;37.15269166405913
46382;BME280;66809;52.974;-2.514;2023-07-20T07:07:35;1009.8613725428994;;;13.135673743293422;37.00901512157641
46382;BME280;66809;52.974;-2.514;2023-07-20T07:09:34;1009.8578280860394;;;13.44493533305789;36.87426212050196
46382;BME280;66809;52.974;-2.514;2023-07-20T07:11:35;1009.858151136881;;;13.646975971692784;36.76621072415669